createdAt,value
2022-08-14T00:02:05.269Z,98145.66
2022-08-14T00:04:44.756Z,98146.97
2022-08-14T00:07:25.042Z,98150.41
2022-08-14T00:10:51.844Z,98147.47
2022-08-14T00:13:07.281Z,98130.91
2022-08-14T00:15:44.098Z,98140.63
2022-08-14T00:18:30.966Z,98144.34
2022-08-14T00:24:13.932Z,98146.88
2022-08-14T00:26:55.786Z,98138.44
2022-08-14T00:29:27.403Z,98140.69
2022-08-14T00:32:50.311Z,98142.59
2022-08-14T00:34:57.713Z,98143.19
2022-08-14T00:37:32.193Z,98135.19
2022-08-14T00:40:27.366Z,98144.28
2022-08-14T00:42:56.688Z,98129.63
2022-08-14T00:45:27.887Z,98137.31
2022-08-14T00:50:47.434Z,98134.00
2022-08-14T00:53:22.825Z,98119.75
2022-08-14T00:56:07.072Z,98132.72
2022-08-14T00:58:44.984Z,98133.59
2022-08-14T01:01:20.525Z,98130.13
2022-08-14T01:03:55.729Z,98121.44
2022-08-14T01:06:34.505Z,98119.25
2022-08-14T01:09:14.885Z,98102.59
2022-08-14T01:11:45.098Z,98119.84
2022-08-14T01:14:31.589Z,98121.81
2022-08-14T01:17:03.754Z,98122.28
2022-08-14T01:19:50.033Z,98114.16
2022-08-14T01:22:31.488Z,98123.16
2022-08-14T01:25:11.339Z,98122.81
2022-08-14T01:27:56.726Z,98119.03
2022-08-14T01:30:28.740Z,98119.28
2022-08-14T01:33:10.395Z,98116.03
2022-08-14T01:36:05.127Z,98121.34
2022-08-14T01:38:39.883Z,98121.97
2022-08-14T01:41:31.666Z,98117.06
2022-08-14T01:44:32.350Z,98092.28
2022-08-14T01:47:21.381Z,98108.91
2022-08-14T01:50:01.208Z,98093.53
2022-08-14T01:52:58.664Z,98095.84
2022-08-14T01:55:32.585Z,98081.06
2022-08-14T01:58:29.610Z,98099.09
2022-08-14T02:01:00.543Z,98085.94
2022-08-14T02:03:40.312Z,98099.16
2022-08-14T02:06:32.163Z,98099.22
2022-08-14T02:09:19.150Z,98085.19
2022-08-14T02:12:02.883Z,98090.19
2022-08-14T02:14:37.808Z,98097.94
2022-08-14T02:17:14.367Z,98091.09
2022-08-14T02:19:48.293Z,98094.19
2022-08-14T02:22:28.679Z,98087.16
2022-08-14T02:25:10.785Z,98077.13
2022-08-14T02:28:22.668Z,98086.38
2022-08-14T02:30:38.233Z,98070.19
2022-08-14T02:33:23.681Z,98073.28
2022-08-14T02:36:45.972Z,98076.44
2022-08-14T02:38:56.513Z,98083.28
2022-08-14T02:41:36.648Z,98084.22
2022-08-14T02:44:30.012Z,98080.63
2022-08-14T02:47:07.107Z,98076.56
2022-08-14T02:49:50.564Z,98077.50
2022-08-14T02:52:26.863Z,98043.97
2022-08-14T02:55:20.493Z,98073.09
2022-08-14T02:58:02.913Z,98071.22
2022-08-14T03:00:40.553Z,98075.84
2022-08-14T03:03:14.353Z,98063.00
2022-08-14T03:05:50.237Z,98078.63
2022-08-14T03:08:34.774Z,98077.66
2022-08-14T03:11:15.657Z,98070.28
2022-08-14T03:13:55.863Z,98071.91
2022-08-14T03:16:35.973Z,98061.38
2022-08-14T03:19:14.089Z,98059.50
2022-08-14T03:21:53.120Z,98075.69
2022-08-14T03:24:23.673Z,98076.09
2022-08-14T03:26:57.719Z,98078.47
2022-08-14T03:29:40.733Z,98013.66
2022-08-14T03:32:30.389Z,98077.69
2022-08-14T03:35:09.592Z,98073.28
2022-08-14T03:39:10.691Z,98075.22
2022-08-14T03:40:45.736Z,98075.22
2022-08-14T03:43:18.422Z,98076.03
2022-08-14T03:45:54.794Z,98073.72
2022-08-14T03:51:09.394Z,98052.66
2022-08-14T03:53:46.592Z,98066.41
2022-08-14T03:56:29.573Z,98068.16
2022-08-14T03:59:08.133Z,98068.53
2022-08-14T04:01:57.925Z,98067.38
2022-08-14T04:04:33.743Z,98082.31
2022-08-14T04:07:13.166Z,98077.09
2022-08-14T04:09:46.634Z,98076.63
2022-08-14T04:12:26.462Z,98053.31
2022-08-14T04:15:11.849Z,98081.28
2022-08-14T04:17:55.777Z,98069.84
2022-08-14T04:20:30.820Z,98073.66
2022-08-14T04:23:23.286Z,98075.56
2022-08-14T04:25:59.369Z,98053.66
2022-08-14T04:28:58.794Z,98067.59
2022-08-14T04:32:57.683Z,98062.97
2022-08-14T04:34:27.906Z,98062.50
2022-08-14T04:37:24.879Z,98061.66
2022-08-14T04:40:17.571Z,98036.88
2022-08-14T04:43:05.730Z,98059.84
2022-08-14T04:45:52.305Z,98060.81
2022-08-14T04:48:36.789Z,98058.38
2022-08-14T04:51:20.651Z,98043.97
2022-08-14T04:54:08.468Z,98060.47
2022-08-14T04:56:40.641Z,98058.97
2022-08-14T04:59:16.868Z,98053.47
2022-08-14T05:01:57.361Z,98054.59
2022-08-14T05:04:32.266Z,98041.03
2022-08-14T05:07:08.402Z,98059.59
2022-08-14T05:09:48.061Z,98039.47
2022-08-14T05:13:11.675Z,98059.56
2022-08-14T05:15:12.000Z,98050.53
2022-08-14T05:18:03.750Z,98027.84
2022-08-14T05:21:59.714Z,98059.88
2022-08-14T05:24:17.498Z,98055.94
2022-08-14T05:26:52.164Z,98056.00
2022-08-14T05:29:27.498Z,98053.81
2022-08-14T05:32:04.466Z,98055.25
2022-08-14T05:34:35.955Z,98058.41
2022-08-14T05:37:06.701Z,98052.78
2022-08-14T05:39:37.981Z,98036.88
2022-08-14T05:42:38.325Z,98045.72
2022-08-14T05:45:18.817Z,98055.69
2022-08-14T05:47:51.482Z,98052.78
2022-08-14T05:50:22.509Z,98056.53
2022-08-14T05:52:55.247Z,98048.91
2022-08-14T05:55:33.172Z,98044.25
2022-08-14T05:58:08.843Z,98051.59
2022-08-14T06:00:41.870Z,98053.78
2022-08-14T06:03:18.592Z,98048.22
2022-08-14T06:05:52.026Z,98052.41
2022-08-14T06:08:41.252Z,98047.75
2022-08-14T06:11:14.893Z,98053.56
2022-08-14T06:14:01.942Z,98048.44
2022-08-14T06:16:34.690Z,98049.25
2022-08-14T06:19:18.426Z,98051.25
2022-08-14T06:21:59.173Z,98050.41
2022-08-14T06:24:34.997Z,98052.75
2022-08-14T06:27:13.695Z,98045.31
2022-08-14T06:29:51.881Z,98045.09
2022-08-14T06:32:36.733Z,98048.09
2022-08-14T06:35:19.835Z,98037.25
2022-08-14T06:37:56.859Z,98033.28
2022-08-14T06:40:40.334Z,98026.16
2022-08-14T06:43:15.207Z,98029.53
2022-08-14T06:46:01.236Z,98019.53
2022-08-14T06:48:37.544Z,98015.03
2022-08-14T06:51:25.197Z,98015.50
2022-08-14T06:54:11.870Z,98009.63
2022-08-14T06:56:44.154Z,98019.69
2022-08-14T06:59:19.915Z,98025.94
2022-08-14T07:02:13.340Z,98021.31
2022-08-14T07:05:05.385Z,98020.84
2022-08-14T07:07:42.708Z,98024.47
2022-08-14T07:10:21.516Z,97991.19
2022-08-14T07:12:56.652Z,97992.50
2022-08-14T07:15:40.001Z,98026.31
2022-08-14T07:18:16.978Z,98000.03
2022-08-14T07:20:48.540Z,98014.16
2022-08-14T07:23:24.592Z,98015.69
2022-08-14T07:26:00.453Z,98005.25
2022-08-14T07:28:44.167Z,98018.41
2022-08-14T07:31:25.640Z,98014.59
2022-08-14T07:33:54.620Z,98001.59
2022-08-14T07:36:33.234Z,97986.44
2022-08-14T07:39:16.379Z,98000.91
2022-08-14T07:42:00.249Z,97995.06
2022-08-14T07:44:46.271Z,97994.59
2022-08-14T07:47:29.066Z,98000.66
2022-08-14T07:50:21.584Z,97998.78
2022-08-14T07:52:55.330Z,98000.91
2022-08-14T07:55:29.436Z,98003.34
2022-08-14T07:58:05.884Z,98003.25
2022-08-14T08:00:57.839Z,97988.28
2022-08-14T08:03:35.467Z,98005.41
2022-08-14T08:06:17.373Z,98001.69
2022-08-14T08:09:03.149Z,98000.06
2022-08-14T08:11:37.833Z,97996.22
2022-08-14T08:14:17.602Z,97999.97
2022-08-14T08:17:04.145Z,98002.72
2022-08-14T08:19:39.946Z,97994.16
2022-08-14T08:22:12.139Z,98003.78
2022-08-14T08:24:52.805Z,97992.28
2022-08-14T08:27:26.793Z,97992.75
2022-08-14T08:30:21.365Z,97989.03
2022-08-14T08:32:52.322Z,97981.41
2022-08-14T08:35:46.326Z,97994.03
2022-08-14T08:39:18.457Z,97988.19
2022-08-14T08:41:18.303Z,97987.47
2022-08-14T08:43:48.421Z,97975.28
2022-08-14T08:46:32.219Z,97970.94
2022-08-14T08:49:21.349Z,97970.72
2022-08-14T08:51:54.209Z,97964.53
2022-08-14T08:54:31.106Z,97959.31
2022-08-14T08:57:18.374Z,97944.88
2022-08-14T08:59:58.820Z,97947.34
2022-08-14T09:05:18.982Z,97943.13
2022-08-14T09:08:00.275Z,97938.34
2022-08-14T09:10:30.955Z,97931.50
2022-08-14T09:13:13.066Z,97929.91
2022-08-14T09:15:52.590Z,97927.47
2022-08-14T09:18:30.209Z,97924.66
2022-08-14T09:21:07.164Z,97919.75
2022-08-14T09:24:26.228Z,97923.31
2022-08-14T10:06:47.722Z,97880.19
2022-08-14T10:09:18.568Z,97880.41
2022-08-14T10:12:04.537Z,97881.34
2022-08-14T10:14:43.166Z,97881.16
2022-08-14T10:17:31.748Z,97880.09
2022-08-14T10:20:39.732Z,97871.97
2022-08-14T10:23:26.061Z,97865.56
2022-08-14T10:26:06.949Z,97868.34
2022-08-14T10:29:17.911Z,97856.69
2022-08-14T10:31:47.560Z,97842.69
2022-08-14T10:34:33.460Z,97863.88
2022-08-14T10:37:23.661Z,97863.97
2022-08-14T10:40:37.385Z,97844.28
2022-08-14T10:43:02.420Z,97849.69
2022-08-14T10:45:46.189Z,97848.66
2022-08-14T10:48:37.055Z,97825.44
2022-08-14T10:51:18.623Z,97843.66
2022-08-14T10:53:59.587Z,97849.25
2022-08-14T10:56:43.038Z,97836.00
2022-08-14T10:59:21.728Z,97827.69
2022-08-14T11:01:51.316Z,97832.16
2022-08-14T11:04:31.243Z,97832.31
2022-08-14T11:07:07.557Z,97827.00
2022-08-14T11:09:36.562Z,97823.06
2022-08-14T11:12:34.926Z,97823.69
2022-08-14T11:15:12.327Z,97815.63
2022-08-14T11:17:45.907Z,97810.66
2022-08-14T11:20:20.827Z,97815.13
2022-08-14T11:23:00.303Z,97786.41
2022-08-14T11:25:36.918Z,97798.75
2022-08-14T11:28:19.649Z,97787.91
2022-08-14T11:31:14.028Z,97794.94
2022-08-14T11:33:44.027Z,97787.88
2022-08-14T11:36:19.116Z,97784.53
2022-08-14T11:38:50.573Z,97778.97
2022-08-14T11:41:26.316Z,97778.53
2022-08-14T11:43:59.809Z,97766.03
2022-08-14T11:46:37.790Z,97778.91
2022-08-14T11:49:08.100Z,97773.72
2022-08-14T11:51:56.618Z,97742.03
2022-08-14T11:54:33.598Z,97754.13
2022-08-14T11:57:02.459Z,97767.47
2022-08-14T11:59:38.533Z,97765.22
2022-08-14T12:03:00.601Z,97759.97
2022-08-14T12:05:23.323Z,97749.03
2022-08-14T12:07:59.374Z,97757.56
2022-08-14T12:10:42.954Z,97753.69
2022-08-14T12:13:14.234Z,97752.75
2022-08-14T12:16:11.253Z,97745.50
2022-08-14T12:18:58.706Z,97744.69
2022-08-14T12:21:32.296Z,97732.69
2022-08-14T12:24:05.160Z,97730.78
2022-08-14T12:26:41.518Z,97731.13
2022-08-14T12:29:27.459Z,97705.56
2022-08-14T12:32:08.779Z,97718.25
2022-08-14T12:34:45.128Z,97714.00
2022-08-14T12:37:19.840Z,97715.00
2022-08-14T12:39:52.493Z,97711.28
2022-08-14T12:42:34.535Z,97701.25
2022-08-14T12:45:05.660Z,97697.84
2022-08-14T12:47:35.679Z,97700.69
2022-08-14T12:50:12.925Z,97699.97
2022-08-14T12:53:01.884Z,97698.06
2022-08-14T12:56:18.483Z,97691.34
2022-08-14T12:58:51.863Z,97681.53
2022-08-14T13:01:28.136Z,97685.19
2022-08-14T13:04:20.595Z,97679.97
2022-08-14T13:06:59.251Z,97651.81
2022-08-14T13:09:36.513Z,97649.81
2022-08-14T13:12:32.576Z,97671.84
2022-08-14T13:15:09.537Z,97663.19
2022-08-14T13:17:45.593Z,97657.81
2022-08-14T13:20:23.276Z,97660.19
2022-08-14T13:22:56.173Z,97661.56
2022-08-14T13:25:32.800Z,97654.50
2022-08-14T13:28:30.308Z,97647.09
2022-08-14T13:31:11.438Z,97643.28
2022-08-14T13:33:43.727Z,97643.78
2022-08-14T13:36:24.052Z,97624.75
2022-08-14T13:38:59.445Z,97635.03
2022-08-14T13:41:36.765Z,97615.09
2022-08-14T13:44:13.744Z,97640.13
2022-08-14T13:46:51.893Z,97638.25
2022-08-14T13:49:23.918Z,97625.72
2022-08-14T13:51:59.503Z,97625.56
2022-08-14T13:54:35.600Z,97622.53
2022-08-14T13:57:09.271Z,97609.63
2022-08-14T13:59:41.299Z,97623.25
2022-08-14T14:02:12.440Z,97627.13
2022-08-14T14:05:05.225Z,97613.00
2022-08-14T14:07:39.289Z,97609.59
2022-08-14T14:10:25.185Z,97606.66
2022-08-14T14:13:08.209Z,97596.38
2022-08-14T14:15:57.924Z,97593.19
